Aeroporto :
LOGIN :

Iscrizione | Disclaimer

   EN    FR    IT 

 










Sommario :    VFR   VFR Marginale   IFR   IFR Intensivo   IFR Molto Intensivo
Visibilità : 
Base nubi : 
>= 8 km
>= 3000ft
5 / 8 km
1000 / 3000 ft
1500m / 5 km
500 / 1000 ft
800 / 1500m
200 / 500 ft
< 800m
< 200 ft
Simboli :   Temporali  Nebbia  Neve Forte  Precipitazioni Forti  Vento > 20 kt
SIGMETs :   Varie  Temporali  Ghiacco  Turbolenza  Onda orograficha  Ceneri Vulcaniche






- Altitudine del aeroporto : 479 ft
- Codice IATA : DOL


LFRG - Deauville

ULTIMO METAR :
  • 142100Z AUTO 09004KT 060V120 CAVOK 02/01 Q1000 BECMG 3000 BR

METARs OBSOLETI :
  • 142030Z AUTO VRB03KT CAVOK 02/01 Q1000 BECMG 3000 BR
  • 142000Z AUTO 08003KT 030V120 CAVOK 02/01 Q0999 TEMPO BKN020CB BECMG 3000 BR
  • 141930Z AUTO VRB03KT CAVOK 02/01 Q0999 TEMPO BKN020CB BECMG 3000 BR
  • 141900Z AUTO 15003KT CAVOK 02/01 Q0999 TEMPO 4000 SHRA BKN020CB
  • 141830Z AUTO 12003KT CAVOK 03/02 Q0999 TEMPO 4000 SHRA BKN020CB

TAF TAF LFRG
Valido dal 14 a 15 ore il 15 a 00 ore UTC


141400Z 1415/1424 19010KT 9999 BKN030
TEMPO 1415/1421 4000 SHRA BKN020CB
BECMG 1415/1418 VRB05KT
BECMG 1421/1424 3000 BR
ATIS : +33 2 31 65 65 36



MetMap, La meteo Aeronautica in un colpo d'occhio ! - Copyright ORBIFLY Dicembre 2007 - Disclaimer

ORBIFLY MET'MAP TEAM :

Programmazione e sviluppo : Alexandra Zaïnal
Concezione e sviluppo : Baudouin d'Aumeries
Co-Programmazione e sviluppo : Marc-Olivier Méhu
Supporto tecnico e logistico : Manuel Goepfert
Aiuto per la traduzione : Arnaldo La Scala

Contatto : metmap@orbifly.com




FONTI E CREDITI :

   NOAA